Time;durP1;ratioP1;P1;durP2;ratioP2;P2;SDS_P1;SDS_P2;PMS_P1;PMS_P2;Temp;Humidity;BMP_temperature;BMP_pressure;BME280_temperature;BME280_humidity;BME280_pressure;Samples;Min_cycle;Max_cycle;Signal;HPM_P1;HPM_P2
2023/01/27 00:00:15;;;;;;;30.88;14.90;;;3.30;99.90;;;;;;4983103;28;20053;-69
2023/01/27 00:02:42;;;;;;;25.55;15.00;;;3.30;99.90;;;;;;4981276;28;20415;-69
2023/01/27 00:05:10;;;;;;;31.77;16.02;;;3.30;99.90;;;;;;4989360;28;20038;-69
2023/01/27 00:07:37;;;;;;;30.85;15.85;;;3.30;99.90;;;;;;4988370;28;20045;-69
2023/01/27 00:10:04;;;;;;;29.45;17.83;;;3.30;99.90;;;;;;4970012;28;20057;-69
2023/01/27 00:15:20;;;;;;;37.92;17.63;;;3.30;99.90;;;;;;4988071;28;19919;-69
2023/01/27 00:17:45;;;;;;;34.47;18.02;;;3.30;99.90;;;;;;4952297;28;20041;-69
2023/01/27 00:20:11;;;;;;;32.78;17.63;;;3.30;99.90;;;;;;4966917;28;20252;-69
2023/01/27 00:25:21;;;;;;;28.88;15.88;;;3.30;99.90;;;;;;5001381;28;20388;-69
2023/01/27 00:27:47;;;;;;;25.20;15.40;;;3.30;99.90;;;;;;4972943;28;20092;-69
2023/01/27 00:30:13;;;;;;;27.92;15.57;;;3.30;99.90;;;;;;4972781;28;20478;-68
2023/01/27 00:35:24;;;;;;;27.85;15.93;;;3.20;99.90;;;;;;4987792;28;20046;-69
2023/01/27 00:37:50;;;;;;;30.33;15.57;;;3.20;99.90;;;;;;4984487;28;20046;-69
2023/01/27 00:40:16;;;;;;;27.05;15.05;;;3.20;99.90;;;;;;4971633;28;20046;-69
2023/01/27 00:42:42;;;;;;;28.30;15.13;;;3.20;99.90;;;;;;4987152;28;20073;-69
2023/01/27 00:47:53;;;;;;;19.30;11.50;;;3.20;99.90;;;;;;4984150;28;20510;-69
2023/01/27 00:50:20;;;;;;;21.85;12.57;;;3.20;99.90;;;;;;4967237;28;20069;-69
2023/01/27 00:52:46;;;;;;;27.13;13.00;;;3.20;99.90;;;;;;4986720;28;20124;-69
2023/01/27 00:55:14;;;;;;;23.80;11.70;;;3.20;99.90;;;;;;4972001;28;20041;-69
2023/01/27 00:57:41;;;;;;;20.00;12.10;;;3.20;99.90;;;;;;4967735;28;20041;-69
2023/01/27 01:00:08;;;;;;;21.80;12.68;;;3.20;99.90;;;;;;4971489;28;20046;-69
2023/01/27 01:02:35;;;;;;;22.65;12.77;;;3.20;99.90;;;;;;4987276;28;20558;-69
2023/01/27 01:05:00;;;;;;;20.48;11.45;;;3.20;99.90;;;;;;4989240;28;20034;-69
2023/01/27 01:07:26;;;;;;;23.15;10.95;;;3.20;99.90;;;;;;4988462;28;20038;-69
2023/01/27 01:09:52;;;;;;;22.33;11.70;;;3.20;99.90;;;;;;5003347;28;20123;-69
2023/01/27 01:12:18;;;;;;;20.95;12.68;;;3.20;99.90;;;;;;4967056;28;20050;-68
2023/01/27 01:14:43;;;;;;;19.58;11.40;;;3.20;99.90;;;;;;4955834;28;20045;-69
2023/01/27 01:17:09;;;;;;;28.92;11.75;;;3.20;99.90;;;;;;4951641;28;20185;-69
2023/01/27 01:19:35;;;;;;;18.48;11.27;;;3.20;99.90;;;;;;4970273;28;20065;-69
2023/01/27 01:22:01;;;;;;;21.35;10.30;;;3.20;99.90;;;;;;4972966;28;20042;-68
2023/01/27 01:24:26;;;;;;;15.70;10.35;;;3.20;99.90;;;;;;4974182;28;20092;-68
2023/01/27 01:26:52;;;;;;;17.83;9.55;;;3.20;99.90;;;;;;4990277;28;20093;-69
2023/01/27 01:29:18;;;;;;;19.23;10.02;;;3.20;99.90;;;;;;4991057;28;20060;-69
2023/01/27 01:31:44;;;;;;;15.02;8.70;;;3.30;99.90;;;;;;4975021;28;20223;-69
2023/01/27 01:34:09;;;;;;;18.10;7.85;;;3.20;99.90;;;;;;4987623;28;20543;-68
2023/01/27 01:36:35;;;;;;;18.02;8.68;;;3.20;99.90;;;;;;4993727;28;20033;-69
2023/01/27 01:39:01;;;;;;;14.95;7.95;;;3.20;99.90;;;;;;4975800;28;20053;-69
2023/01/27 01:41:27;;;;;;;15.68;7.72;;;3.20;99.90;;;;;;4988369;28;20042;-68
2023/01/27 01:43:53;;;;;;;11.23;7.65;;;3.20;99.90;;;;;;4990489;28;20418;-69
2023/01/27 01:46:19;;;;;;;12.15;7.05;;;3.20;99.90;;;;;;4991890;28;20482;-69
2023/01/27 01:48:54;;;;;;;12.77;7.53;;;3.20;99.90;;;;;;4988879;28;20041;-69
2023/01/27 01:51:25;;;;;;;9.70;6.70;;;3.20;99.90;;;;;;4990335;28;20514;-69
2023/01/27 01:54:04;;;;;;;10.52;6.32;;;3.20;99.90;;;;;;4990823;28;20044;-69
2023/01/27 01:56:37;;;;;;;11.88;6.63;;;3.20;99.90;;;;;;4987997;28;20030;-69
2023/01/27 01:59:27;;;;;;;10.10;6.30;;;3.20;99.90;;;;;;4990110;28;20120;-68
2023/01/27 02:01:56;;;;;;;9.55;5.93;;;3.20;99.90;;;;;;4986895;28;20378;-69
2023/01/27 02:04:30;;;;;;;9.32;5.47;;;3.20;99.90;;;;;;4975924;28;20133;-69
2023/01/27 02:07:03;;;;;;;8.45;5.65;;;3.20;99.90;;;;;;4975278;28;20069;-68
2023/01/27 02:09:29;;;;;;;7.97;5.60;;;3.20;99.90;;;;;;4988340;28;20334;-68
2023/01/27 02:11:57;;;;;;;9.10;5.55;;;3.20;99.90;;;;;;4990451;28;20085;-68
2023/01/27 02:14:22;;;;;;;8.70;5.82;;;3.20;99.90;;;;;;4988066;28;20121;-69
2023/01/27 02:16:48;;;;;;;8.48;5.28;;;3.20;99.90;;;;;;4974984;28;20129;-69
2023/01/27 02:19:35;;;;;;;9.82;5.80;;;3.20;99.90;;;;;;4990778;28;20120;-68
2023/01/27 02:22:05;;;;;;;9.60;5.50;;;3.20;99.90;;;;;;4989874;28;20038;-69
2023/01/27 02:24:40;;;;;;;9.98;5.65;;;3.20;99.90;;;;;;4990910;28;20076;-69
2023/01/27 02:27:06;;;;;;;10.13;5.20;;;3.20;99.90;;;;;;4988322;28;20137;-69
2023/01/27 02:29:34;;;;;;;11.35;5.43;;;3.20;99.90;;;;;;4974557;28;20037;-69
2023/01/27 02:32:00;;;;;;;8.80;5.22;;;3.20;99.90;;;;;;4971030;28;20499;-69
2023/01/27 02:34:29;;;;;;;6.30;4.75;;;3.30;99.90;;;;;;4984649;28;20033;-69
2023/01/27 02:37:00;;;;;;;10.80;5.60;;;3.30;99.90;;;;;;4968582;28;20066;-68
2023/01/27 02:39:34;;;;;;;8.50;5.35;;;3.20;99.90;;;;;;4990001;28;20446;-69
2023/01/27 02:42:04;;;;;;;7.00;4.70;;;3.30;99.90;;;;;;5002794;28;20042;-69
2023/01/27 02:44:31;;;;;;;6.28;4.30;;;3.30;99.90;;;;;;4971458;28;20037;-69
2023/01/27 02:46:57;;;;;;;11.10;4.80;;;3.30;99.90;;;;;;4990085;28;20045;-69
2023/01/27 02:49:23;;;;;;;8.82;4.68;;;3.30;99.90;;;;;;4957853;28;20038;-68
2023/01/27 02:51:48;;;;;;;7.07;4.15;;;3.30;99.90;;;;;;4984629;28;20037;-69
2023/01/27 02:54:14;;;;;;;9.20;4.65;;;3.30;99.90;;;;;;4969734;28;20072;-68
2023/01/27 02:56:40;;;;;;;7.78;4.55;;;3.30;99.90;;;;;;4989253;28;20038;-69
2023/01/27 02:59:06;;;;;;;7.57;3.95;;;3.30;99.90;;;;;;4991612;28;20050;-69
2023/01/27 03:01:32;;;;;;;8.15;4.38;;;3.30;99.90;;;;;;4987537;28;20044;-68
2023/01/27 03:03:58;;;;;;;5.07;4.18;;;3.30;99.90;;;;;;4972494;28;20482;-69
2023/01/27 03:06:24;;;;;;;5.65;3.60;;;3.30;99.90;;;;;;4991067;28;20060;-69
2023/01/27 03:08:49;;;;;;;6.32;3.60;;;3.30;99.90;;;;;;4987225;28;20038;-69
2023/01/27 03:12:18;;;;;;;4.93;3.42;;;3.30;99.90;;;;;;4973129;28;20148;-68
2023/01/27 03:14:04;;;;;;;5.43;3.38;;;3.30;99.90;;;;;;4975010;28;20709;-68
2023/01/27 03:19:14;;;;;;;6.32;3.97;;;3.30;99.90;;;;;;4988776;28;20135;-68
2023/01/27 03:21:40;;;;;;;8.05;3.70;;;3.30;99.90;;;;;;4989206;28;20546;-68
2023/01/27 03:24:06;;;;;;;9.77;3.90;;;3.30;99.90;;;;;;4971413;28;20497;-68
2023/01/27 03:26:31;;;;;;;6.50;4.75;;;3.30;99.90;;;;;;4988616;28;20041;-68
2023/01/27 03:31:55;;;;;;;4.90;3.25;;;3.30;99.90;;;;;;4956294;28;20068;-69
2023/01/27 03:34:21;;;;;;;4.38;3.00;;;3.40;99.90;;;;;;4984437;28;20479;-69
2023/01/27 03:47:43;;;;;;;5.45;3.50;;;3.20;99.90;;;;;;4995752;28;20503;-68
2023/01/27 03:50:18;;;;;;;7.03;3.55;;;3.20;99.90;;;;;;4989681;28;20041;-69
2023/01/27 03:53:01;;;;;;;4.50;3.70;;;3.20;99.90;;;;;;4989343;28;20034;-69
2023/01/27 03:55:34;;;;;;;4.88;3.70;;;3.30;99.90;;;;;;4990289;28;20099;-69
2023/01/27 03:58:18;;;;;;;5.93;3.47;;;3.30;99.90;;;;;;4988693;28;20034;-69
2023/01/27 04:00:59;;;;;;;5.72;3.55;;;3.30;99.90;;;;;;4974338;28;20499;-69
2023/01/27 04:08:59;;;;;;;6.53;3.67;;;3.30;99.90;;;;;;4985240;28;20038;-68
2023/01/27 04:14:10;;;;;;;5.70;3.45;;;3.30;99.90;;;;;;4988063;28;20045;-69
2023/01/27 04:16:36;;;;;;;4.32;3.60;;;3.30;99.90;;;;;;4988667;28;20125;-69
2023/01/27 04:19:07;;;;;;;4.40;3.55;;;3.30;99.90;;;;;;4970332;28;20128;-69
2023/01/27 04:21:33;;;;;;;7.47;4.00;;;3.30;99.90;;;;;;5005760;28;20038;-68
2023/01/27 04:23:59;;;;;;;9.15;4.00;;;3.20;99.90;;;;;;4983875;28;20036;-69
2023/01/27 04:26:32;;;;;;;4.43;3.88;;;3.20;99.90;;;;;;4972654;28;20041;-68
2023/01/27 04:28:59;;;;;;;4.40;4.00;;;3.30;99.90;;;;;;4988598;28;20053;-69
2023/01/27 04:31:25;;;;;;;4.53;3.92;;;3.20;99.90;;;;;;4986511;28;20073;-68
2023/01/27 04:33:51;;;;;;;5.35;3.95;;;3.20;99.90;;;;;;4985570;28;20042;-69
2023/01/27 04:36:16;;;;;;;5.82;3.72;;;3.20;99.90;;;;;;4983052;28;20061;-68
2023/01/27 04:38:42;;;;;;;4.00;3.42;;;3.20;99.90;;;;;;4983812;28;20740;-68
2023/01/27 04:41:08;;;;;;;4.82;3.50;;;3.20;99.90;;;;;;4981520;28;20073;-68
2023/01/27 04:43:35;;;;;;;3.83;3.30;;;3.20;99.90;;;;;;4988298;28;20048;-68
2023/01/27 04:46:00;;;;;;;10.10;3.50;;;3.10;99.90;;;;;;4985721;28;20118;-68
2023/01/27 04:48:26;;;;;;;6.80;3.40;;;3.10;99.90;;;;;;4985468;28;20132;-68
2023/01/27 04:50:52;;;;;;;4.35;2.80;;;3.10;99.90;;;;;;4985683;28;20108;-69
2023/01/27 04:53:18;;;;;;;4.65;3.70;;;3.10;99.90;;;;;;4981849;28;20064;-68
2023/01/27 04:55:48;;;;;;;5.13;3.00;;;3.10;99.90;;;;;;4987716;28;20038;-68
2023/01/27 04:58:15;;;;;;;3.92;2.80;;;3.10;99.90;;;;;;4982666;28;20518;-68
2023/01/27 05:00:41;;;;;;;6.82;3.10;;;3.00;99.90;;;;;;4988029;28;20056;-68
2023/01/27 05:03:08;;;;;;;6.53;2.92;;;3.10;99.90;;;;;;4984985;28;20042;-68
2023/01/27 05:05:35;;;;;;;3.13;2.60;;;3.00;99.90;;;;;;4953961;28;20117;-68
2023/01/27 05:08:06;;;;;;;5.32;2.38;;;3.00;99.90;;;;;;4988286;28;20029;-68
2023/01/27 05:10:32;;;;;;;3.10;2.50;;;3.00;99.90;;;;;;5006844;28;20053;-68
2023/01/27 05:13:00;;;;;;;3.75;2.53;;;3.00;99.90;;;;;;4986439;28;20104;-68
2023/01/27 05:15:27;;;;;;;3.60;2.33;;;3.00;99.90;;;;;;4971464;28;20038;-69
2023/01/27 05:17:53;;;;;;;5.28;2.42;;;3.00;99.90;;;;;;4983184;28;20115;-68
2023/01/27 05:20:19;;;;;;;4.82;2.65;;;3.00;99.90;;;;;;4988263;28;20128;-68
2023/01/27 05:22:45;;;;;;;5.13;2.85;;;3.00;99.90;;;;;;4994682;28;20491;-68
2023/01/27 05:25:10;;;;;;;5.25;2.47;;;3.00;99.90;;;;;;4971091;28;20050;-69
2023/01/27 05:27:36;;;;;;;3.70;2.30;;;3.10;99.90;;;;;;4987061;28;20069;-69
2023/01/27 05:30:02;;;;;;;5.05;2.70;;;3.00;99.90;;;;;;4983953;28;20034;-69
2023/01/27 05:32:28;;;;;;;5.45;2.65;;;2.90;99.90;;;;;;4986247;28;20112;-68
2023/01/27 05:34:54;;;;;;;3.78;2.58;;;3.00;99.90;;;;;;4984764;28;20128;-68
2023/01/27 05:37:20;;;;;;;4.35;2.45;;;3.00;99.90;;;;;;4970764;28;20037;-68
2023/01/27 05:39:45;;;;;;;3.83;2.80;;;2.90;99.90;;;;;;4987813;28;20380;-68
2023/01/27 05:42:11;;;;;;;6.05;2.65;;;2.90;99.90;;;;;;4963349;28;20037;-68
2023/01/27 05:44:40;;;;;;;8.07;3.08;;;2.90;99.90;;;;;;4982147;28;20134;-68
2023/01/27 05:47:05;;;;;;;5.05;2.92;;;2.90;99.90;;;;;;4982760;28;20190;-68
2023/01/27 05:49:32;;;;;;;3.85;2.75;;;2.90;99.90;;;;;;4971952;28;20479;-69
2023/01/27 05:51:57;;;;;;;3.58;3.00;;;2.90;99.90;;;;;;4969689;28;20030;-69
2023/01/27 05:54:23;;;;;;;4.35;2.92;;;2.90;99.90;;;;;;4967911;28;20034;-68
2023/01/27 05:56:49;;;;;;;4.25;2.92;;;2.90;99.90;;;;;;4971997;28;20038;-68
2023/01/27 05:59:15;;;;;;;4.45;2.70;;;2.90;99.90;;;;;;4986041;28;20081;-68
2023/01/27 06:01:40;;;;;;;5.22;3.33;;;2.90;99.90;;;;;;4982205;28;20104;-69
2023/01/27 06:04:06;;;;;;;6.63;2.83;;;2.90;99.90;;;;;;4990701;28;20050;-68
2023/01/27 06:06:33;;;;;;;6.00;3.67;;;2.90;99.90;;;;;;4952484;28;20048;-69
2023/01/27 06:08:59;;;;;;;11.25;3.30;;;2.90;99.90;;;;;;4964758;28;20037;-68
2023/01/27 06:11:25;;;;;;;8.45;3.45;;;2.90;99.90;;;;;;4979159;28;20026;-68
2023/01/27 06:13:52;;;;;;;5.63;3.13;;;2.80;99.90;;;;;;4976229;28;20038;-68
2023/01/27 06:16:19;;;;;;;5.43;2.78;;;2.90;99.90;;;;;;4978323;28;20073;-68
2023/01/27 06:18:46;;;;;;;4.47;3.13;;;2.90;99.90;;;;;;4978182;28;20041;-68
2023/01/27 06:21:13;;;;;;;4.93;3.20;;;2.80;99.90;;;;;;4974770;28;20052;-69
2023/01/27 06:23:39;;;;;;;6.63;3.70;;;2.80;99.90;;;;;;4978942;28;21452;-69
2023/01/27 06:26:10;;;;;;;6.20;3.35;;;2.80;99.90;;;;;;4944883;28;20399;-69
2023/01/27 06:28:39;;;;;;;5.35;3.30;;;2.80;99.90;;;;;;4977969;28;20855;-69
2023/01/27 06:31:13;;;;;;;5.93;2.80;;;2.80;99.90;;;;;;4945162;28;20518;-69
2023/01/27 06:33:39;;;;;;;7.20;3.80;;;2.80;99.90;;;;;;4961706;28;20458;-68
2023/01/27 06:36:13;;;;;;;6.05;3.30;;;2.80;99.90;;;;;;4961115;28;20334;-69
2023/01/27 06:38:40;;;;;;;6.00;3.28;;;2.80;99.90;;;;;;4960988;28;20594;-69
2023/01/27 06:41:06;;;;;;;6.45;3.63;;;2.70;99.90;;;;;;4975210;28;20502;-68
2023/01/27 06:43:32;;;;;;;6.70;3.25;;;2.80;99.90;;;;;;4977518;28;20081;-68
2023/01/27 06:45:58;;;;;;;8.13;3.20;;;2.80;99.90;;;;;;4977539;28;20124;-68
2023/01/27 06:48:24;;;;;;;7.32;3.40;;;2.70;99.90;;;;;;4967392;28;20037;-68
2023/01/27 06:50:52;;;;;;;7.18;3.45;;;2.80;99.90;;;;;;4962458;28;20077;-68
2023/01/27 06:53:17;;;;;;;7.40;3.70;;;2.70;99.90;;;;;;4962136;28;21201;-68
2023/01/27 06:55:44;;;;;;;6.80;3.22;;;2.70;99.90;;;;;;4976034;28;20899;-68
2023/01/27 06:58:11;;;;;;;6.68;3.60;;;2.80;99.90;;;;;;4963193;28;20048;-68
2023/01/27 07:00:38;;;;;;;5.18;3.78;;;2.80;99.90;;;;;;4976069;28;20480;-69
2023/01/27 07:03:05;;;;;;;5.38;3.55;;;2.70;99.90;;;;;;4963631;28;20045;-68
2023/01/27 07:05:36;;;;;;;5.97;3.53;;;2.80;99.90;;;;;;4978299;28;20034;-68
2023/01/27 07:08:02;;;;;;;5.30;3.53;;;2.70;99.90;;;;;;4948533;28;20038;-69
2023/01/27 07:10:28;;;;;;;7.85;3.95;;;2.70;99.90;;;;;;4962500;28;20499;-68
2023/01/27 07:13:07;;;;;;;8.40;4.22;;;2.70;99.90;;;;;;4964565;28;21026;-68
2023/01/27 07:15:33;;;;;;;7.57;4.15;;;2.70;99.90;;;;;;4949853;28;20130;-68
2023/01/27 07:17:59;;;;;;;10.35;4.40;;;2.70;99.90;;;;;;4962378;28;20033;-69
2023/01/27 07:20:27;;;;;;;6.75;4.18;;;2.80;99.90;;;;;;4959622;28;20821;-69
2023/01/27 07:22:56;;;;;;;10.30;4.53;;;2.70;99.90;;;;;;4960802;28;20502;-68
2023/01/27 07:25:22;;;;;;;8.73;4.40;;;2.70;99.90;;;;;;4977798;28;20053;-68
2023/01/27 07:27:48;;;;;;;7.18;4.25;;;2.70;99.90;;;;;;4960626;28;20045;-68
2023/01/27 07:30:14;;;;;;;7.20;4.45;;;2.70;99.90;;;;;;4959547;28;20042;-68
2023/01/27 07:32:40;;;;;;;7.78;5.40;;;2.70;99.90;;;;;;4960789;28;20454;-68
2023/01/27 07:35:06;;;;;;;5.90;4.47;;;3.20;99.90;;;;;;4961950;28;20065;-68
2023/01/27 07:37:31;;;;;;;8.77;4.68;;;2.70;99.90;;;;;;4960891;28;20045;-68
2023/01/27 07:39:57;;;;;;;9.68;4.65;;;2.70;99.90;;;;;;4976941;28;20509;-68
2023/01/27 07:42:23;;;;;;;6.70;4.53;;;2.70;99.90;;;;;;4975944;28;20654;-69
2023/01/27 07:44:49;;;;;;;10.18;4.80;;;2.60;99.90;;;;;;4974979;28;20037;-69
2023/01/27 07:47:14;;;;;;;8.35;4.80;;;2.70;99.90;;;;;;4979940;28;20464;-68
2023/01/27 07:49:40;;;;;;;7.53;4.70;;;2.60;99.90;;;;;;4987771;28;20038;-68
2023/01/27 07:52:06;;;;;;;15.68;4.38;;;2.60;99.90;;;;;;4970459;28;20041;-68
2023/01/27 07:54:32;;;;;;;7.85;4.78;;;2.60;99.90;;;;;;4993290;28;20048;-68
2023/01/27 07:57:00;;;;;;;8.63;4.93;;;2.70;99.90;;;;;;4995708;28;20026;-69
2023/01/27 07:59:27;;;;;;;7.78;4.60;;;2.70;99.90;;;;;;4993210;28;20084;-68
2023/01/27 08:01:52;;;;;;;7.05;4.65;;;2.70;99.90;;;;;;4979653;28;20506;-68
2023/01/27 08:04:18;;;;;;;9.25;4.90;;;2.80;99.90;;;;;;4992921;28;20042;-68
2023/01/27 08:06:44;;;;;;;9.80;5.35;;;2.80;99.90;;;;;;4994890;28;20426;-68
2023/01/27 08:09:10;;;;;;;9.07;5.10;;;2.80;99.90;;;;;;4992970;28;20041;-68
2023/01/27 08:11:36;;;;;;;8.52;5.45;;;2.80;99.90;;;;;;4992352;28;20494;-68
2023/01/27 08:14:02;;;;;;;10.50;5.60;;;2.80;99.90;;;;;;5009072;28;20068;-68
2023/01/27 08:16:28;;;;;;;10.85;6.38;;;2.80;99.90;;;;;;4992746;28;20041;-68
2023/01/27 08:18:54;;;;;;;11.38;5.53;;;2.80;99.90;;;;;;4996078;28;20419;-69
2023/01/27 08:21:21;;;;;;;9.60;5.57;;;2.80;99.90;;;;;;4995445;28;20525;-69
2023/01/27 08:23:46;;;;;;;10.95;6.15;;;2.90;99.90;;;;;;4994757;28;20033;-69
2023/01/27 08:26:12;;;;;;;9.38;6.38;;;2.90;99.90;;;;;;4993387;28;20161;-69
2023/01/27 08:28:39;;;;;;;13.35;5.82;;;3.00;99.90;;;;;;4993814;28;20049;-69
2023/01/27 08:31:10;;;;;;;8.10;5.90;;;2.90;99.90;;;;;;4976727;28;20752;-69
2023/01/27 08:33:37;;;;;;;9.82;5.80;;;2.90;99.90;;;;;;4991356;28;20168;-69
2023/01/27 08:36:06;;;;;;;11.20;6.55;;;2.90;99.90;;;;;;4977988;28;20048;-69
2023/01/27 08:38:33;;;;;;;7.90;5.65;;;2.90;99.90;;;;;;4970453;28;20045;-69
2023/01/27 08:41:06;;;;;;;11.75;5.88;;;3.00;99.90;;;;;;4974872;28;20159;-69
2023/01/27 08:43:32;;;;;;;10.38;6.25;;;3.00;99.90;;;;;;4976222;28;20459;-69
2023/01/27 08:45:59;;;;;;;10.73;6.57;;;3.00;99.90;;;;;;4967354;28;20052;-69
2023/01/27 08:48:30;;;;;;;9.90;5.95;;;3.00;99.90;;;;;;4989966;28;20399;-69
2023/01/27 08:50:57;;;;;;;11.32;6.43;;;3.00;99.90;;;;;;4992799;28;20040;-69
2023/01/27 08:53:24;;;;;;;9.55;6.03;;;3.10;99.90;;;;;;4992326;28;20037;-69
2023/01/27 08:55:52;;;;;;;8.70;5.95;;;3.00;99.90;;;;;;4993302;28;20060;-69
2023/01/27 08:58:18;;;;;;;9.43;5.95;;;3.10;99.90;;;;;;4992219;28;20095;-69
2023/01/27 09:00:44;;;;;;;10.55;6.13;;;3.10;99.90;;;;;;4975732;28;20439;-70
2023/01/27 09:03:10;;;;;;;9.90;6.00;;;3.10;99.90;;;;;;4984201;28;20030;-70
2023/01/27 09:05:36;;;;;;;10.07;6.18;;;3.20;99.90;;;;;;4993354;28;20038;-70
2023/01/27 09:08:03;;;;;;;10.50;5.20;;;3.20;99.90;;;;;;4992226;28;20583;-70
2023/01/27 09:10:30;;;;;;;11.80;5.80;;;3.10;99.90;;;;;;4993350;28;20073;-70
2023/01/27 09:12:56;;;;;;;9.45;6.13;;;3.20;99.90;;;;;;4993108;28;20759;-70
2023/01/27 09:15:22;;;;;;;10.43;5.85;;;3.20;99.90;;;;;;4976049;28;20111;-70
2023/01/27 09:17:48;;;;;;;10.52;6.53;;;3.30;99.90;;;;;;4992388;28;20463;-70
2023/01/27 09:20:14;;;;;;;9.93;6.00;;;3.30;99.90;;;;;;4977084;28;20045;-70
2023/01/27 09:22:41;;;;;;;9.38;5.72;;;3.30;99.90;;;;;;4991515;28;20038;-70
2023/01/27 09:25:10;;;;;;;9.18;5.93;;;3.30;99.90;;;;;;4991198;28;20048;-70
2023/01/27 09:27:36;;;;;;;12.30;5.72;;;3.30;99.90;;;;;;4992520;28;20045;-70
2023/01/27 09:30:02;;;;;;;9.63;5.38;;;3.30;99.90;;;;;;4994388;28;20045;-70
2023/01/27 09:32:28;;;;;;;8.45;5.68;;;3.30;99.90;;;;;;4994085;28;20046;-70
2023/01/27 09:34:54;;;;;;;11.88;5.47;;;3.20;99.90;;;;;;4991095;28;21550;-70
2023/01/27 09:37:19;;;;;;;7.55;5.20;;;3.30;99.90;;;;;;4976227;28;20065;-70
2023/01/27 09:39:50;;;;;;;14.73;5.95;;;3.20;99.90;;;;;;4991606;28;20473;-70
2023/01/27 09:42:47;;;;;;;8.18;5.30;;;3.20;99.90;;;;;;4990683;28;20109;-70
2023/01/27 09:45:34;;;;;;;9.35;5.43;;;3.20;99.90;;;;;;4995819;28;20038;-70
2023/01/27 09:48:13;;;;;;;12.40;5.90;;;3.20;99.90;;;;;;5002915;28;20030;-70
2023/01/27 09:51:05;;;;;;;8.93;5.40;;;3.20;99.90;;;;;;5010420;28;20048;-70
2023/01/27 09:53:34;;;;;;;11.32;5.40;;;3.20;99.90;;;;;;4991318;28;20049;-70
2023/01/27 09:56:02;;;;;;;6.50;4.57;;;3.20;99.90;;;;;;4995091;28;20108;-70
2023/01/27 09:58:47;;;;;;;9.45;5.85;;;3.20;99.90;;;;;;4978789;28;20037;-69
2023/01/27 10:01:35;;;;;;;8.60;5.22;;;3.20;99.90;;;;;;4994676;28;20042;-70
2023/01/27 10:04:03;;;;;;;7.00;4.72;;;3.20;99.90;;;;;;4994228;28;20261;-70
2023/01/27 10:06:50;;;;;;;7.72;4.97;;;3.20;99.90;;;;;;4995482;28;20049;-70
2023/01/27 10:09:16;;;;;;;7.85;5.00;;;3.20;99.90;;;;;;4994624;28;20042;-70
2023/01/27 10:12:04;;;;;;;7.05;4.45;;;3.20;99.90;;;;;;4994586;28;20045;-70
2023/01/27 10:14:36;;;;;;;5.53;4.40;;;3.20;99.90;;;;;;4978691;28;20040;-69
2023/01/27 10:17:11;;;;;;;6.43;4.00;;;3.20;99.90;;;;;;4989205;28;20457;-70
2023/01/27 10:19:58;;;;;;;5.75;4.13;;;3.20;99.90;;;;;;4988013;28;21235;-70
2023/01/27 10:22:43;;;;;;;6.55;4.60;;;3.20;99.90;;;;;;4995635;28;20038;-70
2023/01/27 10:25:48;;;;;;;6.63;4.28;;;3.30;99.90;;;;;;4987319;28;20132;-70
2023/01/27 10:28:18;;;;;;;6.60;4.25;;;3.30;99.90;;;;;;4995531;28;20203;-70
2023/01/27 10:31:04;;;;;;;8.60;4.07;;;3.30;99.90;;;;;;4994678;28;20457;-70
2023/01/27 10:33:55;;;;;;;4.45;3.47;;;3.30;99.90;;;;;;4990931;28;20042;-70
2023/01/27 10:36:41;;;;;;;6.03;4.13;;;3.40;99.90;;;;;;4987055;28;20053;-70
2023/01/27 10:39:21;;;;;;;5.32;3.17;;;3.40;99.90;;;;;;4990528;28;20056;-70
2023/01/27 10:42:05;;;;;;;6.53;3.38;;;3.40;99.90;;;;;;4989074;28;20046;-70
2023/01/27 10:45:07;;;;;;;7.43;3.47;;;3.40;99.90;;;;;;4994212;28;20288;-70
2023/01/27 10:47:54;;;;;;;6.50;3.33;;;3.40;99.90;;;;;;4993029;28;20143;-70
2023/01/27 10:50:42;;;;;;;6.80;3.75;;;3.40;99.90;;;;;;4996280;28;20056;-70
2023/01/27 10:53:21;;;;;;;5.15;3.88;;;3.50;99.90;;;;;;4991116;28;20077;-70
2023/01/27 10:56:00;;;;;;;5.55;3.50;;;3.40;99.90;;;;;;4992523;28;20415;-70
2023/01/27 10:58:47;;;;;;;5.93;3.70;;;3.50;99.90;;;;;;4978283;28;20104;-70
2023/01/27 11:01:17;;;;;;;6.95;3.92;;;3.50;99.90;;;;;;4993792;28;20045;-69
2023/01/27 11:03:54;;;;;;;5.05;3.47;;;3.50;99.90;;;;;;4975069;28;20034;-70
2023/01/27 11:06:32;;;;;;;4.57;3.40;;;3.60;99.90;;;;;;4985286;28;20041;-70
2023/01/27 11:09:07;;;;;;;5.68;3.33;;;3.70;99.90;;;;;;4995461;28;20053;-70
2023/01/27 11:11:48;;;;;;;5.15;3.58;;;3.70;99.90;;;;;;4992401;28;20041;-70
2023/01/27 11:14:25;;;;;;;4.43;3.42;;;3.70;99.90;;;;;;4976793;28;21039;-70
2023/01/27 11:16:55;;;;;;;6.00;3.83;;;3.80;99.90;;;;;;4992931;28;20045;-70
2023/01/27 11:19:41;;;;;;;6.45;3.50;;;3.80;99.90;;;;;;4973513;28;20042;-70
2023/01/27 11:22:25;;;;;;;4.60;3.53;;;3.80;99.90;;;;;;4995758;28;20542;-70
2023/01/27 11:25:03;;;;;;;5.95;3.75;;;3.90;99.90;;;;;;4988395;28;20095;-70
2023/01/27 11:28:00;;;;;;;4.97;3.50;;;3.90;99.90;;;;;;4985104;28;20045;-69
2023/01/27 11:30:57;;;;;;;6.25;3.75;;;3.90;99.90;;;;;;4985884;28;20521;-70
2023/01/27 11:33:29;;;;;;;5.47;3.60;;;4.00;99.90;;;;;;4942463;28;20322;-69
2023/01/27 11:35:57;;;;;;;5.03;3.28;;;4.00;99.90;;;;;;4973995;28;20041;-70
2023/01/27 11:38:23;;;;;;;4.18;3.30;;;3.90;99.90;;;;;;4974634;28;20069;-70
2023/01/27 11:40:51;;;;;;;12.88;3.88;;;4.00;99.90;;;;;;4987908;28;20127;-70
2023/01/27 11:43:24;;;;;;;4.85;3.72;;;4.00;99.90;;;;;;5005701;28;20522;-69
2023/01/27 11:45:56;;;;;;;5.50;2.70;;;4.00;99.90;;;;;;4986824;28;20042;-70
2023/01/27 11:48:35;;;;;;;5.63;3.47;;;4.00;99.90;;;;;;4987426;28;20045;-69
2023/01/27 11:51:02;;;;;;;5.85;3.95;;;4.00;99.90;;;;;;4989557;28;20550;-69
2023/01/27 11:53:35;;;;;;;4.75;3.35;;;4.00;99.90;;;;;;4972704;28;20073;-70
2023/01/27 11:56:09;;;;;;;3.28;2.67;;;3.90;99.90;;;;;;4987687;28;20048;-69
2023/01/27 11:58:46;;;;;;;3.67;3.10;;;4.00;99.90;;;;;;5003890;28;20109;-69
2023/01/27 12:01:17;;;;;;;3.95;3.05;;;3.90;99.90;;;;;;4983121;28;20034;-69
2023/01/27 12:03:48;;;;;;;4.25;3.13;;;3.90;99.90;;;;;;4972825;28;20134;-69
2023/01/27 12:06:21;;;;;;;3.92;2.83;;;4.00;99.90;;;;;;4990302;28;20045;-69
2023/01/27 12:08:50;;;;;;;3.10;2.60;;;4.00;99.90;;;;;;4988526;28;20141;-69
2023/01/27 12:11:34;;;;;;;2.90;2.35;;;3.90;99.90;;;;;;4973719;28;20034;-69
2023/01/27 12:14:04;;;;;;;2.30;2.08;;;3.90;99.90;;;;;;4987835;28;20069;-69
2023/01/27 12:16:47;;;;;;;2.67;2.00;;;3.90;99.90;;;;;;4989125;28;20057;-69
2023/01/27 12:19:35;;;;;;;3.28;2.20;;;3.90;99.90;;;;;;4990112;28;20041;-69
2023/01/27 12:22:07;;;;;;;5.43;2.58;;;3.90;99.90;;;;;;4988853;28;20095;-69
2023/01/27 12:24:40;;;;;;;3.55;2.72;;;3.90;99.90;;;;;;4991553;28;20038;-69
2023/01/27 12:27:18;;;;;;;4.00;2.78;;;3.90;99.90;;;;;;4992086;28;20041;-69
2023/01/27 12:29:49;;;;;;;3.08;2.70;;;3.90;99.90;;;;;;4987703;28;20046;-69
2023/01/27 12:32:40;;;;;;;3.70;2.60;;;3.90;99.90;;;;;;4974993;28;20052;-69
2023/01/27 12:35:17;;;;;;;3.22;2.53;;;3.90;99.90;;;;;;4989798;28;20388;-69
2023/01/27 12:37:43;;;;;;;3.38;2.70;;;3.90;99.90;;;;;;4985949;28;20531;-69
2023/01/27 12:40:23;;;;;;;4.40;2.38;;;3.90;99.90;;;;;;4968860;28;20436;-70
2023/01/27 12:43:11;;;;;;;3.90;2.63;;;3.90;99.90;;;;;;4985288;28;20603;-69
2023/01/27 12:45:37;;;;;;;4.03;2.97;;;3.90;99.90;;;;;;4986970;28;20672;-69
2023/01/27 12:48:03;;;;;;;3.08;2.45;;;3.90;99.90;;;;;;4973600;28;20038;-69
2023/01/27 12:50:34;;;;;;;3.95;2.60;;;3.90;99.90;;;;;;4972387;28;20044;-69
2023/01/27 12:53:05;;;;;;;2.90;2.38;;;3.90;99.90;;;;;;4985809;28;20038;-69
2023/01/27 12:55:40;;;;;;;3.55;2.47;;;3.80;99.90;;;;;;4989636;28;20103;-69
2023/01/27 12:58:27;;;;;;;3.45;2.45;;;3.80;99.90;;;;;;4987572;28;20064;-69
2023/01/27 13:00:54;;;;;;;4.18;2.60;;;3.80;99.90;;;;;;5003742;28;20033;-69
2023/01/27 13:03:21;;;;;;;3.17;2.25;;;3.80;99.90;;;;;;4973520;28;20041;-69
2023/01/27 13:05:51;;;;;;;2.50;2.28;;;3.80;99.90;;;;;;4987549;28;20610;-69
2023/01/27 13:08:18;;;;;;;2.10;1.90;;;3.70;99.90;;;;;;4986031;28;20545;-69
2023/01/27 13:10:54;;;;;;;2.13;1.92;;;3.70;99.90;;;;;;4969720;28;20042;-69
2023/01/27 13:13:24;;;;;;;2.15;1.80;;;3.70;99.90;;;;;;4986243;28;20585;-69
2023/01/27 13:15:55;;;;;;;2.30;1.92;;;3.80;99.90;;;;;;4971974;28;20050;-69
2023/01/27 13:18:22;;;;;;;2.10;1.90;;;3.70;99.90;;;;;;4989725;28;20117;-69
2023/01/27 13:21:00;;;;;;;3.13;2.08;;;3.70;99.90;;;;;;4992233;28;20052;-69
2023/01/27 13:23:35;;;;;;;3.85;2.20;;;3.70;99.90;;;;;;4993369;28;20042;-69
2023/01/27 13:26:10;;;;;;;2.70;2.00;;;3.70;99.90;;;;;;4991086;28;20303;-69
2023/01/27 13:29:05;;;;;;;3.03;2.00;;;3.70;99.90;;;;;;4989212;28;20038;-69
2023/01/27 13:31:55;;;;;;;3.42;2.13;;;3.70;99.90;;;;;;4968801;28;20392;-69
2023/01/27 13:34:53;;;;;;;4.03;2.30;;;3.80;99.90;;;;;;4990258;28;20510;-69
2023/01/27 13:37:31;;;;;;;3.38;2.58;;;3.70;99.90;;;;;;4969339;28;20083;-69
2023/01/27 13:40:22;;;;;;;3.47;2.17;;;3.70;99.90;;;;;;4987898;28;20048;-69
2023/01/27 13:42:53;;;;;;;3.08;2.58;;;3.70;99.90;;;;;;4989809;28;20507;-69
2023/01/27 13:45:27;;;;;;;2.55;2.35;;;3.70;99.90;;;;;;4988192;28;20046;-69